createdAt,value
2022-07-31T00:02:11.663Z,6.80
2022-07-31T00:04:41.064Z,10.30
2022-07-31T00:07:13.091Z,7.00
2022-07-31T00:09:52.423Z,10.13
2022-07-31T00:12:24.443Z,9.38
2022-07-31T00:14:53.798Z,9.27
2022-07-31T00:17:23.232Z,7.88
2022-07-31T00:19:52.680Z,8.43
2022-07-31T00:22:24.984Z,9.40
2022-07-31T00:24:54.383Z,11.23
2022-07-31T00:27:23.747Z,8.88
2022-07-31T00:29:53.708Z,8.95
2022-07-31T00:32:23.060Z,9.77
2022-07-31T00:34:53.281Z,12.38
2022-07-31T00:37:25.320Z,11.15
2022-07-31T00:39:54.844Z,10.00
2022-07-31T00:42:26.473Z,11.38
2022-07-31T00:44:55.957Z,20.67
2022-07-31T00:47:28.549Z,11.35
2022-07-31T00:49:59.442Z,10.00
2022-07-31T00:52:31.553Z,12.15
2022-07-31T00:55:01.059Z,9.43
2022-07-31T00:57:30.570Z,12.15
2022-07-31T01:00:00.199Z,14.07
2022-07-31T01:02:29.785Z,10.98
2022-07-31T01:04:59.286Z,12.18
2022-07-31T01:07:31.291Z,11.13
2022-07-31T01:10:05.165Z,11.55
2022-07-31T01:12:41.219Z,12.90
2022-07-31T01:15:14.309Z,16.67
2022-07-31T01:17:47.834Z,11.20
2022-07-31T01:20:18.032Z,14.00
2022-07-31T01:23:10.999Z,14.40
2022-07-31T01:25:47.469Z,13.40
2022-07-31T01:28:27.212Z,13.50
2022-07-31T01:31:25.599Z,14.02
2022-07-31T01:33:56.567Z,13.77
2022-07-31T01:36:34.693Z,12.27
2022-07-31T01:39:05.367Z,14.63
2022-07-31T01:41:40.713Z,14.73
2022-07-31T01:44:13.646Z,14.18
2022-07-31T01:46:47.493Z,14.57
2022-07-31T01:49:19.302Z,12.40
2022-07-31T01:51:51.013Z,15.15
2022-07-31T01:54:23.284Z,14.60
2022-07-31T01:56:52.715Z,13.95
2022-07-31T01:59:24.463Z,15.13
2022-07-31T02:01:57.322Z,14.40
2022-07-31T02:04:27.408Z,13.75
2022-07-31T02:06:58.513Z,14.93
2022-07-31T02:09:28.845Z,12.57
2022-07-31T02:11:59.698Z,13.50
2022-07-31T02:14:31.764Z,15.98
2022-07-31T02:17:05.053Z,13.85
2022-07-31T02:19:34.748Z,13.60
2022-07-31T02:22:05.251Z,16.80
2022-07-31T02:24:35.362Z,13.75
2022-07-31T02:27:05.896Z,14.40
2022-07-31T02:29:56.671Z,15.25
2022-07-31T02:32:29.692Z,16.00
2022-07-31T02:35:01.336Z,13.65
2022-07-31T02:37:32.611Z,14.98
2022-07-31T02:40:03.887Z,16.10
2022-07-31T02:42:33.578Z,18.90
2022-07-31T02:45:04.096Z,15.45
2022-07-31T02:47:36.481Z,17.73
2022-07-31T02:50:07.441Z,18.00
2022-07-31T02:52:38.770Z,15.27
2022-07-31T02:55:08.978Z,16.10
2022-07-31T02:57:38.334Z,16.92
2022-07-31T03:00:23.193Z,16.95
2022-07-31T03:02:56.497Z,15.07
2022-07-31T03:05:26.343Z,19.63
2022-07-31T03:07:55.692Z,15.50
2022-07-31T03:10:25.292Z,14.75
2022-07-31T03:12:57.120Z,17.52
2022-07-31T03:15:29.338Z,14.68
2022-07-31T03:18:01.998Z,16.27
2022-07-31T03:20:42.305Z,15.77
2022-07-31T03:23:14.111Z,14.63
2022-07-31T03:25:44.192Z,16.63
2022-07-31T03:28:14.144Z,16.20
2022-07-31T03:30:43.501Z,15.38
2022-07-31T03:33:15.644Z,17.65
2022-07-31T03:35:45.082Z,16.80
2022-07-31T03:38:38.987Z,18.00
2022-07-31T03:41:04.069Z,18.92
2022-07-31T03:43:46.827Z,17.88
2022-07-31T03:46:19.762Z,19.05
2022-07-31T03:48:53.116Z,18.92
2022-07-31T03:51:23.410Z,19.85
2022-07-31T03:53:52.951Z,20.08
2022-07-31T03:56:23.066Z,19.20
2022-07-31T03:58:52.918Z,20.65
2022-07-31T04:01:23.780Z,20.77
2022-07-31T04:04:03.176Z,21.42
2022-07-31T04:06:32.591Z,20.33
2022-07-31T04:09:13.670Z,22.20
2022-07-31T04:11:48.172Z,24.48
2022-07-31T04:14:17.824Z,25.13
2022-07-31T04:16:47.236Z,20.42
2022-07-31T04:19:19.747Z,22.98
2022-07-31T04:21:50.437Z,21.85
2022-07-31T04:24:21.765Z,20.15
2022-07-31T04:26:51.690Z,20.00
2022-07-31T04:29:21.162Z,20.08
2022-07-31T04:31:50.626Z,21.20
2022-07-31T04:34:22.551Z,21.52
2022-07-31T04:36:52.033Z,20.92
2022-07-31T04:39:21.403Z,21.90
2022-07-31T04:41:51.940Z,20.58
2022-07-31T04:44:21.415Z,20.40
2022-07-31T04:46:51.133Z,19.35
2022-07-31T04:49:23.172Z,21.52
2022-07-31T04:51:53.072Z,21.33
2022-07-31T04:54:22.463Z,19.45
2022-07-31T04:56:51.854Z,18.60
2022-07-31T04:59:23.655Z,16.58
2022-07-31T05:02:13.136Z,16.73
2022-07-31T05:04:45.146Z,17.05
2022-07-31T05:07:22.576Z,14.45
2022-07-31T05:09:52.768Z,14.52
2022-07-31T05:12:22.260Z,14.85
2022-07-31T05:14:51.572Z,18.88
2022-07-31T05:17:20.916Z,18.23
2022-07-31T05:19:52.947Z,16.08
2022-07-31T05:22:22.355Z,14.23
2022-07-31T05:24:51.669Z,16.55
2022-07-31T05:27:21.037Z,13.23
2022-07-31T05:29:50.374Z,11.93
2022-07-31T05:32:19.734Z,14.18
2022-07-31T05:34:49.167Z,12.23
2022-07-31T05:37:21.075Z,12.15
2022-07-31T05:39:50.437Z,15.43
2022-07-31T05:42:19.825Z,14.75
2022-07-31T05:44:49.186Z,11.38
2022-07-31T05:47:18.519Z,13.45
2022-07-31T05:49:47.869Z,12.95
2022-07-31T05:52:19.428Z,15.32
2022-07-31T05:54:51.413Z,16.30
2022-07-31T05:57:33.022Z,12.57
2022-07-31T06:00:04.085Z,12.50
2022-07-31T06:02:33.757Z,11.52
2022-07-31T06:05:03.236Z,13.73
2022-07-31T06:07:32.597Z,14.10
2022-07-31T06:10:06.646Z,14.43
2022-07-31T06:12:35.980Z,11.80
2022-07-31T06:15:05.335Z,12.35
2022-07-31T06:17:43.609Z,12.43
2022-07-31T06:20:15.521Z,16.65
2022-07-31T06:22:45.846Z,15.68
2022-07-31T06:25:17.742Z,14.65
2022-07-31T06:27:50.907Z,15.68
2022-07-31T06:30:29.073Z,13.55
2022-07-31T06:32:58.669Z,14.40
2022-07-31T06:35:28.398Z,14.88
2022-07-31T06:37:57.764Z,14.02
2022-07-31T06:40:29.736Z,15.15
2022-07-31T06:43:01.663Z,13.63
2022-07-31T06:45:51.745Z,13.30
2022-07-31T06:48:21.723Z,19.00
2022-07-31T06:50:56.626Z,14.18
2022-07-31T06:53:33.247Z,16.20
2022-07-31T06:56:05.250Z,13.82
2022-07-31T06:58:34.600Z,13.90
2022-07-31T07:01:04.005Z,19.52
2022-07-31T07:03:33.872Z,12.70
2022-07-31T07:06:03.607Z,14.00
2022-07-31T07:08:32.925Z,12.07
2022-07-31T07:11:04.965Z,14.93
2022-07-31T07:13:46.172Z,13.68
2022-07-31T07:16:16.476Z,14.90
2022-07-31T07:18:46.457Z,17.05
2022-07-31T07:21:15.874Z,16.55
2022-07-31T07:23:45.833Z,15.38
2022-07-31T07:26:18.911Z,18.33
2022-07-31T07:28:48.311Z,16.40
2022-07-31T07:31:17.685Z,15.82
2022-07-31T07:33:47.933Z,13.35
2022-07-31T07:36:23.803Z,12.70
2022-07-31T07:38:55.581Z,13.63
2022-07-31T07:41:28.704Z,15.95
2022-07-31T07:43:58.132Z,12.43
2022-07-31T07:46:29.982Z,11.82
2022-07-31T07:48:59.686Z,10.45
2022-07-31T07:51:29.192Z,9.75
2022-07-31T07:53:58.660Z,9.65
2022-07-31T07:56:33.422Z,10.98
2022-07-31T07:59:02.975Z,10.07
2022-07-31T08:01:32.447Z,10.43
2022-07-31T08:04:02.117Z,7.78
2022-07-31T08:06:32.625Z,10.60
2022-07-31T08:09:02.037Z,10.10
2022-07-31T08:11:34.230Z,9.93
2022-07-31T08:14:03.623Z,14.18
2022-07-31T08:16:33.165Z,7.70
2022-07-31T08:19:02.575Z,8.38
2022-07-31T08:21:32.003Z,8.50
2022-07-31T08:24:01.361Z,8.60
2022-07-31T08:26:51.185Z,10.18
2022-07-31T08:29:27.431Z,13.35
2022-07-31T08:31:58.161Z,10.18
2022-07-31T08:34:31.346Z,11.00
2022-07-31T08:37:52.671Z,11.13
2022-07-31T08:39:53.010Z,11.57
2022-07-31T08:42:22.433Z,13.65
2022-07-31T08:44:54.572Z,11.43
2022-07-31T08:47:27.005Z,12.55
2022-07-31T08:49:57.464Z,8.38
2022-07-31T08:52:28.189Z,12.10
2022-07-31T08:54:58.769Z,7.88
2022-07-31T08:57:29.565Z,8.35
2022-07-31T09:00:01.530Z,9.85
2022-07-31T09:02:32.458Z,6.00
2022-07-31T09:05:01.829Z,6.20
2022-07-31T09:07:31.205Z,5.10
2022-07-31T09:10:00.855Z,4.45
2022-07-31T09:12:33.696Z,4.90
2022-07-31T09:15:06.607Z,3.83
2022-07-31T09:17:37.693Z,4.70
2022-07-31T09:20:08.390Z,4.30
2022-07-31T09:22:37.821Z,5.50
2022-07-31T09:25:12.914Z,3.97
2022-07-31T09:27:42.627Z,4.32
2022-07-31T09:30:15.342Z,3.08
2022-07-31T09:32:46.029Z,5.28
2022-07-31T09:35:17.151Z,5.03
2022-07-31T09:37:50.568Z,4.00
2022-07-31T09:40:21.314Z,4.68
2022-07-31T09:42:55.096Z,3.65
2022-07-31T09:45:27.685Z,2.92
2022-07-31T09:48:08.349Z,2.38
2022-07-31T09:50:41.894Z,8.05
2022-07-31T09:53:14.743Z,4.65
2022-07-31T09:55:52.234Z,2.60
2022-07-31T09:58:22.037Z,3.45
2022-07-31T10:00:56.688Z,3.78
2022-07-31T10:03:27.498Z,5.40
2022-07-31T10:05:58.777Z,2.38
2022-07-31T10:08:30.669Z,6.68
2022-07-31T10:11:00.162Z,3.70
2022-07-31T10:13:30.059Z,3.08
2022-07-31T10:16:03.328Z,4.03
2022-07-31T10:18:38.652Z,4.15
2022-07-31T10:21:14.134Z,4.28
2022-07-31T10:23:46.743Z,3.08
2022-07-31T10:26:16.395Z,2.50
2022-07-31T10:28:46.102Z,3.15
2022-07-31T10:31:18.356Z,4.28
2022-07-31T10:33:48.471Z,4.22
2022-07-31T10:36:22.564Z,3.72
2022-07-31T10:38:57.750Z,3.33
2022-07-31T10:41:36.967Z,2.65
2022-07-31T10:44:13.265Z,2.72
2022-07-31T10:46:45.279Z,3.22
2022-07-31T10:49:17.313Z,3.88
2022-07-31T10:51:53.835Z,2.60
2022-07-31T10:54:23.252Z,2.25
2022-07-31T10:56:52.890Z,3.65
2022-07-31T10:59:30.974Z,3.63
2022-07-31T11:02:03.317Z,4.90
2022-07-31T11:04:34.920Z,4.13
2022-07-31T11:07:04.707Z,4.18
2022-07-31T11:09:34.174Z,4.15
2022-07-31T11:12:21.689Z,4.07
2022-07-31T11:14:51.245Z,3.90
2022-07-31T11:18:22.107Z,3.88
2022-07-31T11:20:29.772Z,3.33
2022-07-31T11:23:01.621Z,3.95
2022-07-31T11:25:33.608Z,5.13
2022-07-31T11:28:14.097Z,4.57
2022-07-31T11:30:53.805Z,5.72
2022-07-31T11:33:41.813Z,5.15
2022-07-31T11:36:14.593Z,2.88
2022-07-31T11:38:46.833Z,5.10
2022-07-31T11:41:17.340Z,5.65
2022-07-31T11:43:54.438Z,2.75
2022-07-31T11:46:28.461Z,4.20
2022-07-31T11:49:01.530Z,3.58
2022-07-31T11:51:31.612Z,3.15
2022-07-31T11:54:00.988Z,3.25
2022-07-31T11:56:31.001Z,3.05
2022-07-31T11:59:01.015Z,2.72
2022-07-31T12:01:31.988Z,2.85
2022-07-31T12:04:09.250Z,2.80
2022-07-31T12:06:40.588Z,1.95
2022-07-31T12:10:01.233Z,4.97
2022-07-31T12:12:00.005Z,2.15
2022-07-31T12:14:34.204Z,2.20
2022-07-31T12:17:04.965Z,3.05
2022-07-31T12:19:39.000Z,3.50
2022-07-31T12:22:16.230Z,2.28
2022-07-31T12:24:45.818Z,3.60
2022-07-31T12:27:17.686Z,2.42
2022-07-31T12:29:47.874Z,2.35
2022-07-31T12:32:27.194Z,2.35
2022-07-31T12:35:07.590Z,3.08
2022-07-31T12:37:49.558Z,2.03
2022-07-31T12:40:29.856Z,3.15
2022-07-31T12:42:59.962Z,1.88
2022-07-31T12:45:35.237Z,4.60
2022-07-31T12:48:04.989Z,2.85
2022-07-31T12:50:37.097Z,3.70
2022-07-31T12:53:07.208Z,2.33
2022-07-31T12:55:38.545Z,2.85
2022-07-31T12:58:07.959Z,2.38
2022-07-31T13:00:40.169Z,2.03
2022-07-31T13:03:09.856Z,1.90
2022-07-31T13:05:41.803Z,2.83
2022-07-31T13:08:11.503Z,2.17
2022-07-31T13:10:40.840Z,3.45
2022-07-31T13:13:10.268Z,5.35
2022-07-31T13:15:39.673Z,4.63
2022-07-31T13:18:09.266Z,3.55
2022-07-31T13:20:41.339Z,3.25
2022-07-31T13:23:10.795Z,3.50
2022-07-31T13:25:40.224Z,2.78
2022-07-31T13:28:09.631Z,4.00
2022-07-31T13:30:41.636Z,3.03
2022-07-31T13:33:11.073Z,4.13
2022-07-31T13:35:45.833Z,4.15
2022-07-31T13:38:15.580Z,2.53
2022-07-31T13:40:57.443Z,2.10
2022-07-31T13:43:26.878Z,3.40
2022-07-31T13:45:56.196Z,3.35
2022-07-31T13:48:25.591Z,2.90
2022-07-31T13:50:57.535Z,3.67
2022-07-31T13:53:26.855Z,5.40
2022-07-31T13:55:56.818Z,2.83
2022-07-31T13:58:27.169Z,3.35
2022-07-31T14:00:58.413Z,4.75
2022-07-31T14:03:30.911Z,3.80
2022-07-31T14:06:07.706Z,3.10
2022-07-31T14:08:50.178Z,4.75
2022-07-31T14:11:20.022Z,3.95
2022-07-31T14:13:49.419Z,2.47
2022-07-31T14:16:18.765Z,2.40
2022-07-31T14:18:48.161Z,3.65
2022-07-31T14:21:20.119Z,2.47
2022-07-31T14:23:49.489Z,4.65
2022-07-31T14:26:18.819Z,3.63
2022-07-31T14:28:49.612Z,3.42
2022-07-31T14:31:19.504Z,6.53
2022-07-31T14:33:48.846Z,5.90
2022-07-31T14:36:20.804Z,2.55
2022-07-31T14:38:50.114Z,2.15
2022-07-31T14:41:19.461Z,5.82
2022-07-31T14:43:48.817Z,3.10
2022-07-31T14:46:18.191Z,5.63
2022-07-31T14:48:47.659Z,4.95
2022-07-31T14:51:22.407Z,6.38
2022-07-31T14:53:53.089Z,2.72
2022-07-31T14:56:39.623Z,4.93
2022-07-31T14:59:11.863Z,3.97
2022-07-31T15:01:41.470Z,3.17
2022-07-31T15:04:10.873Z,4.53
2022-07-31T15:06:56.185Z,6.53
2022-07-31T15:09:33.422Z,5.50
2022-07-31T15:12:03.558Z,3.90
2022-07-31T15:14:33.421Z,3.60
2022-07-31T15:17:03.148Z,4.60
2022-07-31T15:19:32.735Z,5.47
2022-07-31T15:22:10.245Z,2.97
2022-07-31T15:24:48.470Z,2.60
2022-07-31T15:27:19.192Z,3.80
2022-07-31T15:30:02.022Z,4.60
2022-07-31T15:32:35.602Z,3.80
2022-07-31T15:35:05.008Z,3.53
2022-07-31T15:37:39.701Z,4.00
2022-07-31T15:40:11.452Z,4.15
2022-07-31T15:42:42.994Z,5.85
2022-07-31T15:45:15.388Z,4.72
2022-07-31T15:47:45.918Z,2.88
2022-07-31T15:50:18.823Z,3.65
2022-07-31T15:52:51.146Z,3.00
2022-07-31T15:55:21.053Z,2.60
2022-07-31T15:57:50.384Z,4.28
2022-07-31T16:00:21.901Z,2.50
2022-07-31T16:02:52.209Z,4.10
2022-07-31T16:05:37.087Z,3.25
2022-07-31T16:08:32.246Z,4.40
2022-07-31T16:11:00.944Z,5.18
2022-07-31T16:13:31.444Z,3.17
2022-07-31T16:16:00.813Z,3.42
2022-07-31T16:18:30.231Z,3.60
2022-07-31T16:20:59.668Z,3.08
2022-07-31T16:23:31.644Z,3.20
2022-07-31T16:26:01.020Z,4.43
2022-07-31T16:28:30.379Z,4.93
2022-07-31T16:30:59.750Z,4.97
2022-07-31T16:33:29.511Z,4.50
2022-07-31T16:35:58.870Z,3.97
2022-07-31T16:38:30.826Z,3.72
2022-07-31T16:41:00.189Z,2.97
2022-07-31T16:43:48.295Z,6.65
2022-07-31T16:46:19.342Z,4.95
2022-07-31T16:48:48.813Z,5.88
2022-07-31T16:51:18.218Z,4.13
2022-07-31T16:54:14.835Z,3.25
2022-07-31T16:56:39.581Z,5.65
2022-07-31T16:59:09.331Z,2.88
2022-07-31T17:01:54.185Z,3.25
2022-07-31T17:04:28.479Z,2.22
2022-07-31T17:06:57.996Z,2.60
2022-07-31T17:09:31.549Z,2.00
2022-07-31T17:12:00.925Z,2.65
2022-07-31T17:14:30.758Z,3.60
2022-07-31T17:17:00.174Z,3.65
2022-07-31T17:19:42.665Z,3.33
2022-07-31T17:22:17.465Z,2.90
2022-07-31T17:24:52.033Z,2.78
2022-07-31T17:27:22.702Z,6.03
2022-07-31T17:29:52.175Z,1.90
2022-07-31T17:32:21.496Z,5.32
2022-07-31T17:34:51.288Z,3.05
2022-07-31T17:37:21.353Z,3.38
2022-07-31T17:39:57.740Z,4.25
2022-07-31T17:42:28.266Z,5.22
2022-07-31T17:44:58.959Z,4.00
2022-07-31T17:47:28.373Z,4.00
2022-07-31T17:49:57.741Z,2.55
2022-07-31T17:52:27.290Z,3.33
2022-07-31T17:54:59.183Z,3.08
2022-07-31T17:57:30.497Z,2.63
2022-07-31T18:00:00.888Z,4.18
2022-07-31T18:02:30.471Z,3.53
2022-07-31T18:04:59.967Z,2.25
2022-07-31T18:07:29.648Z,3.83
2022-07-31T18:10:01.628Z,6.25
2022-07-31T18:12:56.809Z,2.15
2022-07-31T18:15:20.402Z,2.72
2022-07-31T18:17:51.363Z,2.65
2022-07-31T18:20:21.743Z,3.78
2022-07-31T18:22:51.675Z,1.80
2022-07-31T18:25:23.596Z,2.90
2022-07-31T18:27:54.235Z,2.53
2022-07-31T18:30:23.611Z,2.63
2022-07-31T18:32:59.732Z,3.08
2022-07-31T18:35:29.115Z,2.15
2022-07-31T18:37:58.496Z,3.35
2022-07-31T18:40:32.406Z,2.00
2022-07-31T18:43:03.812Z,3.33
2022-07-31T18:45:33.222Z,2.08
2022-07-31T18:48:02.605Z,2.38
2022-07-31T18:50:59.381Z,3.63
2022-07-31T18:53:21.444Z,2.15
2022-07-31T18:55:53.376Z,2.53
2022-07-31T18:58:22.779Z,2.50
2022-07-31T19:00:55.185Z,3.70
2022-07-31T19:03:26.386Z,2.83
2022-07-31T19:05:56.108Z,2.58
2022-07-31T19:08:25.548Z,3.78
2022-07-31T19:10:57.597Z,2.65
2022-07-31T19:13:27.158Z,3.53
2022-07-31T19:15:56.556Z,3.55
2022-07-31T19:18:28.531Z,2.58
2022-07-31T19:21:17.646Z,3.00
2022-07-31T19:23:48.141Z,2.67
2022-07-31T19:26:20.334Z,4.13
2022-07-31T19:28:49.771Z,3.15
2022-07-31T19:31:19.223Z,2.60
2022-07-31T19:33:48.833Z,3.85
2022-07-31T19:36:18.194Z,3.80
2022-07-31T19:38:48.803Z,3.65
2022-07-31T19:41:21.007Z,3.92
2022-07-31T19:43:50.552Z,3.63
2022-07-31T19:46:20.092Z,2.45
2022-07-31T19:48:49.709Z,3.50
2022-07-31T19:51:19.259Z,3.05
2022-07-31T19:53:50.369Z,3.20
2022-07-31T19:56:22.390Z,3.47
2022-07-31T19:58:52.950Z,3.08
2022-07-31T20:01:22.689Z,2.75
2022-07-31T20:03:53.252Z,2.53
2022-07-31T20:06:22.791Z,3.55
2022-07-31T20:08:56.649Z,3.40
2022-07-31T20:11:28.654Z,3.40
2022-07-31T20:13:58.108Z,2.38
2022-07-31T20:16:27.822Z,3.28
2022-07-31T20:18:57.209Z,3.42
2022-07-31T20:21:26.604Z,4.35
2022-07-31T20:24:04.233Z,2.92
2022-07-31T20:26:36.745Z,4.28
2022-07-31T20:29:06.498Z,5.07
2022-07-31T20:31:35.880Z,3.30
2022-07-31T20:34:05.743Z,4.25
2022-07-31T20:36:35.073Z,3.80
2022-07-31T20:39:04.415Z,2.72
2022-07-31T20:41:39.590Z,3.60
2022-07-31T20:44:09.108Z,3.83
2022-07-31T20:46:38.550Z,4.25
2022-07-31T20:49:08.023Z,3.40
2022-07-31T20:51:52.091Z,4.05
2022-07-31T20:54:34.400Z,5.13
2022-07-31T20:57:06.941Z,3.63
2022-07-31T20:59:36.374Z,3.88
2022-07-31T21:02:06.098Z,3.17
2022-07-31T21:04:35.894Z,6.53
2022-07-31T21:07:05.230Z,4.32
2022-07-31T21:09:34.627Z,5.10
2022-07-31T21:12:04.514Z,4.15
2022-07-31T21:14:36.762Z,4.05
2022-07-31T21:17:06.206Z,5.05
2022-07-31T21:19:35.563Z,5.03
2022-07-31T21:22:05.243Z,3.88
2022-07-31T21:24:35.249Z,4.03
2022-07-31T21:27:06.976Z,5.15
2022-07-31T21:29:39.621Z,6.57
2022-07-31T21:32:10.647Z,4.95
2022-07-31T21:34:40.669Z,5.75
2022-07-31T21:37:10.619Z,5.53
2022-07-31T21:39:46.106Z,4.70
2022-07-31T21:42:16.821Z,5.93
2022-07-31T21:44:49.552Z,6.13
2022-07-31T21:47:22.884Z,4.32
2022-07-31T21:49:58.324Z,6.70
2022-07-31T21:52:29.984Z,6.07
2022-07-31T21:55:03.833Z,4.47
2022-07-31T21:57:58.917Z,5.50
2022-07-31T22:00:26.244Z,8.45
2022-07-31T22:02:57.756Z,6.20
2022-07-31T22:05:39.700Z,7.10
2022-07-31T22:08:09.329Z,5.13
2022-07-31T22:10:38.842Z,3.92
2022-07-31T22:13:08.194Z,4.78
2022-07-31T22:15:58.828Z,6.07
2022-07-31T22:18:30.340Z,4.55
2022-07-31T22:21:00.061Z,7.47
2022-07-31T22:23:30.682Z,4.95
2022-07-31T22:26:00.987Z,6.93
2022-07-31T22:28:31.222Z,5.75
2022-07-31T22:31:03.951Z,5.22
2022-07-31T22:33:33.603Z,5.43
2022-07-31T22:36:06.974Z,5.78
2022-07-31T22:38:38.230Z,7.80
2022-07-31T22:41:08.036Z,5.20
2022-07-31T22:44:13.791Z,5.25
2022-07-31T22:46:30.061Z,6.85
2022-07-31T22:49:02.832Z,8.50
2022-07-31T22:51:36.642Z,5.10
2022-07-31T22:54:07.823Z,6.80
2022-07-31T22:56:37.247Z,4.75
2022-07-31T22:59:08.849Z,5.47
2022-07-31T23:01:40.833Z,6.38
2022-07-31T23:04:10.210Z,6.72
2022-07-31T23:06:39.628Z,7.07
2022-07-31T23:09:09.042Z,5.55
2022-07-31T23:11:38.417Z,6.07
2022-07-31T23:14:07.754Z,6.82
2022-07-31T23:16:39.782Z,7.07
2022-07-31T23:19:09.229Z,5.70
2022-07-31T23:21:38.557Z,6.70
2022-07-31T23:24:08.338Z,6.28
2022-07-31T23:26:37.943Z,6.97
2022-07-31T23:29:07.398Z,5.40
2022-07-31T23:31:38.241Z,5.88
2022-07-31T23:34:10.648Z,6.28
2022-07-31T23:36:40.009Z,5.75
2022-07-31T23:39:09.363Z,5.75
2022-07-31T23:41:51.232Z,5.80
2022-07-31T23:44:24.976Z,5.47
2022-07-31T23:46:54.673Z,6.50
2022-07-31T23:49:26.649Z,5.68
2022-07-31T23:51:56.101Z,5.10
2022-07-31T23:54:25.424Z,5.47
2022-07-31T23:56:54.832Z,5.85
2022-07-31T23:59:24.158Z,6.22
